Aérodrome :
LOGIN :

S'inscrire | Disclaimer

   EN    FR    IT 

 










Légende :    VFR   VFR Marginal   IFR   IFR Intensif   IFR Très Intensif
Visi : 
Plafond : 
>= 8 km
>= 3000ft
5 à 8 km
1000 à 3000 ft
1500m à 5 km
500 à 1000 ft
800 à 1500m
200 à 500 ft
< 800m
< 200 ft
Symboles :   Orages  Brouillard  Fortes neiges  Fortes précipitations  Vent > 20 kt
SIGMETs :   Divers  Orages  Givrage  Turbulence  Onde Orograph.  Cendres Volcan.







- Altitude de l'aérodrome : 425 ft
- Code IATA : DTM


EDLW - Dortmund

DERNIER METAR :
  • 230850Z 04003KT 340V110 CAVOK 22/11 Q1026

METARs EXPIRÉS :
  • 230820Z VRB03KT CAVOK 21/11 Q1026
  • 230750Z 12004KT 070V180 CAVOK 20/11 Q1026
  • 230720Z 13003KT 080V210 CAVOK 18/11 Q1026
  • 230650Z 14005KT CAVOK 16/11 Q1026
  • 230620Z 14006KT 110V180 CAVOK 15/10 Q1026

TAF TAF EDLW
Valide du 23 à 06h jusqu'au 24 à 06h UTC


230500Z 2306/2406 16006KT CAVOK
BECMG 2306/2309 04005KT
BECMG 2320/2323 11004KT
Pas de NOTAMs connus pour ce terrain.



MET'MAP, la Météo Aéronautique d'un coup d'oeil ! - Copyright ORBIFLY Décembre 2007 - Disclaimer

ORBIFLY MET'MAP TEAM :

Programmation & Développement : Alexandra Zaïnal
Conception & Développement : Baudouin d'Aumeries
Co-Programmation & Développement : Marc-Olivier Méhu
Soutien technique & logistique : Manuel Goepfert

Contact : metmap@orbifly.com




SOURCES & CREDITS :

   NOAA